createdAt,value
2023-02-09T00:03:08.852Z,1023.787
2023-02-09T00:23:07.625Z,1023.619
2023-02-09T00:43:07.420Z,1023.684
2023-02-09T01:03:08.310Z,1023.43
2023-02-09T01:23:08.037Z,1023.38
2023-02-09T01:43:07.812Z,1023.203
2023-02-09T02:03:08.680Z,1023.172
2023-02-09T02:23:07.685Z,1022.842
2023-02-09T02:43:07.586Z,1022.729
2023-02-09T03:03:08.242Z,1022.611
2023-02-09T03:23:08.042Z,1022.549
2023-02-09T03:43:08.156Z,1022.558
2023-02-09T04:03:08.845Z,1022.621
2023-02-09T04:23:07.750Z,1022.452
2023-02-09T04:43:07.552Z,1022.312
2023-02-09T05:03:08.608Z,1022.184
2023-02-09T05:23:07.621Z,1022.23
2023-02-09T05:43:07.681Z,1021.94
2023-02-09T06:03:08.752Z,1021.9
2023-02-09T06:23:07.702Z,1022.115
2023-02-09T06:43:07.567Z,1022.163
2023-02-09T07:03:08.376Z,1022.288
2023-02-09T07:23:07.110Z,1022.595
2023-02-09T07:43:08.016Z,1022.653
2023-02-09T08:03:08.868Z,1022.416
2023-02-09T08:23:07.729Z,1022.324
2023-02-09T08:43:07.825Z,1022.383
2023-02-09T09:03:08.793Z,1022.732
2023-02-09T09:23:07.618Z,1023.005
2023-02-09T09:43:07.498Z,1023.135
2023-02-09T10:03:08.284Z,1023.003
2023-02-09T10:23:08.109Z,1023.129
2023-02-09T10:43:08.109Z,1023.086
2023-02-09T11:03:08.934Z,1022.676
2023-02-09T11:23:07.958Z,1022.527
2023-02-09T11:43:07.877Z,1022.311
2023-02-09T12:03:09.581Z,1022.221
2023-02-09T12:23:07.372Z,1022.227
2023-02-09T12:43:07.311Z,1022.54
2023-02-09T13:03:09.202Z,1022.157
2023-02-09T13:23:07.223Z,1022.162
2023-02-09T13:43:07.267Z,1021.984
2023-02-09T14:03:08.448Z,1021.792
2023-02-09T14:23:07.298Z,1021.729
2023-02-09T14:43:07.319Z,1021.798
2023-02-09T15:03:08.664Z,1021.716
2023-02-09T15:23:07.561Z,1021.737
2023-02-09T15:43:07.471Z,1021.859
2023-02-09T16:03:08.577Z,1022.186
2023-02-09T16:23:22.086Z,1022.463
2023-02-09T16:43:08.093Z,1022.812
2023-02-09T17:03:08.878Z,1023.092
2023-02-09T17:23:07.820Z,1023.287
2023-02-09T17:43:07.912Z,1023.22
2023-02-09T18:03:09.127Z,1023.577
2023-02-09T18:23:08.456Z,1023.754
2023-02-09T18:43:07.484Z,1023.774
2023-02-09T19:03:08.438Z,1023.931
2023-02-09T19:23:07.301Z,1024.121
2023-02-09T19:43:07.393Z,1024.342
2023-02-09T20:03:08.653Z,1024.489
2023-02-09T20:23:07.722Z,1024.47
2023-02-09T20:43:08.038Z,1024.445
2023-02-09T21:03:09.126Z,1024.494
2023-02-09T21:23:08.049Z,1024.347
2023-02-09T21:43:08.292Z,1024.405
2023-02-09T22:03:08.619Z,1024.418
2023-02-09T22:23:07.528Z,1024.288
2023-02-09T22:43:07.855Z,1024.466
2023-02-09T23:03:07.976Z,1024.791
2023-02-09T23:23:07.770Z,1024.9
2023-02-09T23:43:07.518Z,1025.193
